Time;durP1;ratioP1;P1;durP2;ratioP2;P2;SDS_P1;SDS_P2;PMS_P1;PMS_P2;Temp;Humidity;BMP_temperature;BMP_pressure;BME280_temperature;BME280_humidity;BME280_pressure;Samples;Min_cycle;Max_cycle;Signal;HPM_P1;HPM_P2
2023/02/11 00:01:51;;;;;;;17.73;13.25;;;;;;;-0.65;57.45;100516.44;5112286;28;20134;-92
2023/02/11 00:04:17;;;;;;;15.07;10.82;;;;;;;-0.97;57.71;100501.88;5112721;28;20056;-91
2023/02/11 00:06:43;;;;;;;14.85;9.98;;;;;;;-0.93;58.63;100532.56;5112711;28;20126;-91
2023/02/11 00:09:09;;;;;;;11.98;8.98;;;;;;;-1.17;60.20;100511.41;5113693;28;20134;-91
2023/02/11 00:11:35;;;;;;;14.15;9.80;;;;;;;-1.32;61.12;100508.94;5111041;28;20089;-91
2023/02/11 00:14:06;;;;;;;13.00;9.70;;;;;;;-1.17;60.56;100540.13;5113393;28;20035;-93
2023/02/11 00:16:32;;;;;;;15.93;9.65;;;;;;;-1.43;61.13;100517.97;5111245;28;20058;-91
2023/02/11 00:19:00;;;;;;;13.75;8.82;;;;;;;-1.45;61.70;100527.44;5113544;28;20492;-93
2023/02/11 00:21:27;;;;;;;12.73;9.55;;;;;;;-1.48;63.06;100537.69;5113237;28;20035;-92
2023/02/11 00:23:55;;;;;;;10.75;8.77;;;;;;;-1.60;63.08;100517.13;5113271;28;20039;-91
2023/02/11 00:26:25;;;;;;;13.30;9.38;;;;;;;-1.63;64.23;100523.91;5113116;28;20046;-93
2023/02/11 00:28:52;;;;;;;12.27;9.02;;;;;;;-1.89;63.43;100497.41;5112059;28;20428;-91
2023/02/11 00:31:21;;;;;;;12.95;8.77;;;;;;;-1.80;64.06;100513.53;5111827;28;20040;-93
2023/02/11 00:33:47;;;;;;;12.40;8.82;;;;;;;-1.83;64.36;100522.91;5112185;28;20515;-91
2023/02/11 00:36:17;;;;;;;14.75;9.25;;;;;;;-1.72;64.42;100537.38;5112726;28;20047;-92
2023/02/11 00:38:43;;;;;;;13.63;9.80;;;;;;;-1.86;64.43;100511.50;5111417;28;20397;-92
2023/02/11 00:41:09;;;;;;;14.63;9.55;;;;;;;-1.78;63.37;100529.22;5111225;28;20048;-93
2023/02/11 00:43:35;;;;;;;13.40;9.07;;;;;;;-1.79;64.68;100536.16;5112456;28;20081;-91
2023/02/11 00:46:01;;;;;;;14.45;10.20;;;;;;;-1.99;65.22;100511.69;5111126;28;20039;-91
2023/02/11 00:48:28;;;;;;;14.27;8.32;;;;;;;-1.95;65.20;100542.31;5113084;28;20050;-91
2023/02/11 00:50:54;;;;;;;11.13;8.73;;;;;;;-1.99;65.95;100547.31;5112648;28;20579;-91
2023/02/11 00:53:20;;;;;;;12.35;8.75;;;;;;;-2.09;65.47;100519.84;5112788;28;20139;-93
2023/02/11 00:55:45;;;;;;;13.38;8.57;;;;;;;-2.03;65.73;100542.75;5111056;28;20039;-91
2023/02/11 00:58:11;;;;;;;12.75;9.23;;;;;;;-2.13;66.03;100552.66;5112519;28;20127;-91
2023/02/11 01:00:37;;;;;;;12.30;8.75;;;;;;;-2.15;64.83;100530.84;5110322;28;20043;-93
2023/02/11 01:03:03;;;;;;;13.05;8.90;;;;;;;-2.07;65.55;100539.06;5112896;28;20039;-92
2023/02/11 01:05:30;;;;;;;12.05;8.25;;;;;;;-2.14;64.99;100544.78;5112346;28;20039;-93
2023/02/11 01:07:56;;;;;;;12.75;7.95;;;;;;;-2.32;66.43;100524.78;5112577;28;20122;-92
2023/02/11 01:10:22;;;;;;;13.10;8.73;;;;;;;-2.33;65.87;100551.63;5112199;28;20083;-91
2023/02/11 01:12:48;;;;;;;11.35;8.18;;;;;;;-2.39;65.60;100525.25;5111764;28;20115;-92
2023/02/11 01:15:15;;;;;;;11.18;8.10;;;;;;;-2.57;66.01;100506.94;5111386;28;20046;-92
2023/02/11 01:17:41;;;;;;;11.27;8.02;;;;;;;-2.30;65.34;100535.25;5111857;28;20051;-93
2023/02/11 01:20:12;;;;;;;11.02;7.38;;;;;;;-2.51;65.60;100516.81;5110534;28;20051;-91
2023/02/11 01:22:40;;;;;;;11.18;7.40;;;;;;;-2.48;66.54;100516.94;5112728;28;20039;-91
2023/02/11 01:25:06;;;;;;;11.50;7.72;;;;;;;-2.53;66.71;100510.63;5111620;28;20063;-90
2023/02/11 01:27:33;;;;;;;10.40;7.53;;;;;;;-2.54;67.42;100517.53;5112418;28;20795;-92
2023/02/11 01:29:59;;;;;;;9.63;6.97;;;;;;;-2.60;68.41;100516.28;5112288;28;20032;-91
2023/02/11 01:32:25;;;;;;;10.30;6.88;;;;;;;-2.56;67.18;100519.16;5110816;28;20081;-91
2023/02/11 01:34:50;;;;;;;9.38;6.32;;;;;;;-2.65;67.23;100513.44;5111858;28;20040;-92
2023/02/11 01:37:16;;;;;;;9.23;6.68;;;;;;;-2.65;67.93;100504.75;5112195;28;20043;-91
2023/02/11 01:39:44;;;;;;;9.82;6.85;;;;;;;-2.57;67.79;100513.88;5114731;28;20051;-91
2023/02/11 01:42:14;;;;;;;12.05;7.25;;;;;;;-2.68;67.94;100489.84;5115278;28;20097;-92
2023/02/11 01:44:40;;;;;;;9.20;6.45;;;;;;;-2.41;67.13;100520.78;5115054;28;20058;-93
2023/02/11 01:47:06;;;;;;;9.80;6.57;;;;;;;-2.34;66.95;100509.84;5113144;28;20047;-93
2023/02/11 01:49:35;;;;;;;8.75;6.15;;;;;;;-2.37;66.58;100491.47;5115265;28;20096;-92
2023/02/11 01:52:05;;;;;;;8.65;5.68;;;;;;;-2.37;67.23;100505.38;5114980;28;20039;-93
2023/02/11 01:57:44;;;;;;;7.65;4.85;;;;;;;-2.44;67.28;100492.84;5113307;27;20392;-93
2023/02/11 02:00:14;;;;;;;6.75;5.13;;;;;;;-2.52;67.82;100488.94;5099629;28;20066;-95
2023/02/11 02:02:49;;;;;;;8.05;5.43;;;;;;;-2.56;68.23;100490.50;5100632;28;20043;-93
2023/02/11 02:05:23;;;;;;;8.25;5.70;;;;;;;-2.59;69.65;100481.63;5096832;28;20085;-92
2023/02/11 02:07:57;;;;;;;9.10;5.35;;;;;;;-2.68;69.31;100479.44;5098254;28;20074;-92
2023/02/11 02:10:25;;;;;;;9.30;6.45;;;;;;;-2.69;69.07;100469.81;5096776;28;20036;-92
2023/02/11 02:12:53;;;;;;;7.38;5.15;;;;;;;-2.56;69.18;100479.19;5099169;28;20434;-93
2023/02/11 02:15:29;;;;;;;9.00;5.75;;;;;;;-2.57;69.14;100469.59;5100979;28;20489;-95
2023/02/11 02:18:02;;;;;;;8.05;5.93;;;;;;;-2.53;68.73;100472.44;5097912;28;20036;-93
2023/02/11 02:21:05;;;;;;;7.15;4.95;;;;;;;-2.44;68.12;100477.22;5097769;28;20084;-95
2023/02/11 02:23:50;;;;;;;9.32;5.43;;;;;;;-2.33;67.10;100483.88;5096527;28;20039;-92
2023/02/11 02:26:45;;;;;;;6.25;4.93;;;;;;;-2.27;66.57;100481.59;5096690;28;20039;-95
2023/02/11 02:29:41;;;;;;;6.85;5.00;;;;;;;-2.15;66.32;100483.94;5096597;28;20047;-93
2023/02/11 02:32:33;;;;;;;6.88;4.72;;;;;;;-2.21;66.48;100472.28;5097200;28;20047;-92
2023/02/11 02:35:10;;;;;;;7.45;5.25;;;;;;;-2.27;66.94;100481.59;5097323;28;20075;-92
2023/02/11 02:37:43;;;;;;;8.48;5.68;;;;;;;-2.40;66.73;100458.34;5100806;28;20036;-93
2023/02/11 02:40:15;;;;;;;8.70;5.45;;;;;;;-2.40;66.75;100468.75;5094764;28;20044;-93
2023/02/11 02:42:43;;;;;;;7.63;5.35;;;;;;;-2.37;66.49;100481.94;5099628;28;20096;-93
2023/02/11 02:45:12;;;;;;;8.05;5.97;;;;;;;-2.36;68.15;100477.63;5094998;28;20047;-93
2023/02/11 02:47:39;;;;;;;6.80;5.05;;;;;;;-2.36;67.48;100482.84;5094368;28;20036;-94
2023/02/11 02:50:08;;;;;;;8.13;5.88;;;;;;;-2.36;67.12;100481.13;5097139;28;20397;-93
2023/02/11 02:52:41;;;;;;;8.15;5.53;;;;;;;-2.48;67.10;100473.56;5097656;28;20050;-93
2023/02/11 02:55:26;;;;;;;8.02;5.45;;;;;;;-2.42;67.07;100485.13;5099847;28;20034;-93
2023/02/11 02:58:31;;;;;;;7.40;5.60;;;;;;;-2.49;66.31;100468.28;5092377;28;20046;-92
2023/02/11 03:01:02;;;;;;;7.40;5.32;;;;;;;-2.50;67.43;100476.91;5097285;28;20467;-92
2023/02/11 03:03:41;;;;;;;6.70;4.85;;;;;;;-2.54;67.50;100474.94;5100377;28;20039;-93
2023/02/11 03:06:12;;;;;;;6.38;4.55;;;;;;;-2.59;67.22;100468.59;5097901;28;20394;-93
2023/02/11 03:08:44;;;;;;;6.28;4.40;;;;;;;-2.64;67.08;100460.56;5084391;28;20093;-92
2023/02/11 03:11:15;;;;;;;7.40;5.50;;;;;;;-2.69;67.60;100462.94;5081261;28;20127;-92
2023/02/11 03:13:42;;;;;;;7.25;5.00;;;;;;;-2.72;67.67;100456.66;5082187;28;20408;-92
2023/02/11 03:16:12;;;;;;;8.32;5.32;;;;;;;-2.70;67.91;100461.13;5079898;28;20035;-91
2023/02/11 03:18:45;;;;;;;6.60;5.18;;;;;;;-2.76;69.13;100458.19;5086308;28;20033;-94
2023/02/11 03:21:13;;;;;;;8.85;4.97;;;;;;;-2.74;69.51;100469.56;5084186;28;20032;-92
2023/02/11 03:23:41;;;;;;;9.52;5.53;;;;;;;-2.75;69.81;100477.34;5081127;28;20039;-93
2023/02/11 03:26:13;;;;;;;8.80;5.40;;;;;;;-2.80;69.39;100456.22;5080909;28;20089;-92
2023/02/11 03:28:45;;;;;;;6.25;5.10;;;;;;;-2.69;68.94;100452.50;5083628;28;20051;-91
2023/02/11 03:31:17;;;;;;;7.93;5.80;;;;;;;-2.82;69.44;100444.88;5074790;28;20036;-90
2023/02/11 03:33:52;;;;;;;9.73;5.93;;;;;;;-2.75;68.96;100460.00;5081840;28;20040;-93
2023/02/11 03:36:26;;;;;;;7.88;5.72;;;;;;;-2.79;68.82;100457.16;5080068;28;20044;-93
2023/02/11 03:38:57;;;;;;;7.88;5.25;;;;;;;-2.84;69.19;100448.19;5079235;28;20520;-92
2023/02/11 03:41:24;;;;;;;10.82;5.85;;;;;;;-2.84;70.08;100456.91;5081664;28;20036;-94
2023/02/11 03:43:53;;;;;;;7.40;5.57;;;;;;;-2.85;70.85;100456.81;5079372;28;20044;-93
2023/02/11 03:46:23;;;;;;;8.50;5.68;;;;;;;-2.91;71.64;100459.97;5079386;28;20051;-92
2023/02/11 03:48:54;;;;;;;9.15;6.95;;;;;;;-2.92;71.46;100460.78;5084145;28;20503;-94
2023/02/11 03:51:23;;;;;;;7.78;5.65;;;;;;;-3.04;72.06;100462.72;5080427;28;20157;-93
2023/02/11 03:53:51;;;;;;;8.98;6.00;;;;;;;-3.16;72.09;100450.84;5083214;28;20522;-91
2023/02/11 03:56:20;;;;;;;9.75;6.60;;;;;;;-3.09;71.54;100457.28;5069872;28;20059;-91
2023/02/11 03:58:47;;;;;;;8.93;6.40;;;;;;;-3.11;70.95;100449.38;5061416;28;20090;-92
2023/02/11 04:01:13;;;;;;;10.75;7.03;;;;;;;-3.19;70.92;100445.47;5066736;28;20135;-93
2023/02/11 04:03:39;;;;;;;9.77;7.13;;;;;;;-3.12;71.29;100470.13;5065153;28;20138;-93
2023/02/11 04:06:07;;;;;;;8.68;6.50;;;;;;;-3.14;71.48;100472.63;5064248;28;20037;-93
2023/02/11 04:08:33;;;;;;;7.78;5.82;;;;;;;-2.96;70.89;100474.47;5062100;28;20044;-92
2023/02/11 04:10:59;;;;;;;8.40;5.43;;;;;;;-3.08;71.08;100451.25;5062552;28;20115;-92
2023/02/11 04:13:25;;;;;;;7.65;5.15;;;;;;;-3.04;70.03;100449.72;5060964;28;20044;-93
2023/02/11 04:15:51;;;;;;;8.35;5.22;;;;;;;-2.92;68.93;100459.09;5061143;28;20095;-92
2023/02/11 04:18:16;;;;;;;9.38;5.90;;;;;;;-2.86;67.32;100458.53;5060820;28;20038;-92
2023/02/11 04:20:42;;;;;;;9.10;6.22;;;;;;;-2.79;66.58;100452.81;5063837;28;20095;-93
2023/02/11 04:23:10;;;;;;;9.43;6.18;;;;;;;-2.79;67.02;100455.44;5063254;28;20048;-93
2023/02/11 04:25:35;;;;;;;8.18;5.80;;;;;;;-2.80;66.88;100453.63;5057806;28;20054;-90
2023/02/11 04:28:01;;;;;;;7.63;5.60;;;;;;;-2.82;66.59;100450.06;5062026;28;20036;-91
2023/02/11 04:30:27;;;;;;;9.35;6.25;;;;;;;-2.70;67.09;100460.22;5057819;28;20051;-90
2023/02/11 04:32:53;;;;;;;8.88;6.25;;;;;;;-2.83;67.31;100461.28;5058971;28;20036;-92
2023/02/11 04:35:19;;;;;;;8.20;6.00;;;;;;;-2.90;67.60;100452.25;5061688;28;20064;-91
2023/02/11 04:37:45;;;;;;;8.35;6.00;;;;;;;-2.87;68.00;100450.63;5062650;28;20130;-92
2023/02/11 04:40:12;;;;;;;10.52;6.03;;;;;;;-2.78;67.62;100461.53;5064741;28;20521;-94
2023/02/11 04:42:39;;;;;;;8.48;5.38;;;;;;;-2.86;67.55;100435.09;5061627;28;20912;-93
2023/02/11 04:45:06;;;;;;;7.90;5.40;;;;;;;-2.79;67.37;100433.72;5061486;28;20036;-92
2023/02/11 04:47:32;;;;;;;8.48;5.75;;;;;;;-2.90;68.53;100444.44;5059649;28;20032;-94
2023/02/11 04:49:58;;;;;;;8.43;5.53;;;;;;;-2.84;69.41;100466.41;5060038;28;20563;-93
2023/02/11 04:52:24;;;;;;;8.13;5.22;;;;;;;-2.90;69.43;100465.28;5061425;28;20382;-92
2023/02/11 04:54:50;;;;;;;7.20;4.70;;;;;;;-3.12;69.23;100439.78;5061889;28;20052;-91
2023/02/11 04:57:17;;;;;;;8.15;5.50;;;;;;;-3.00;70.30;100451.66;5075875;28;20075;-93
2023/02/11 04:59:43;;;;;;;7.53;5.25;;;;;;;-3.07;70.84;100453.06;5081800;28;20130;-91
2023/02/11 05:02:09;;;;;;;6.43;4.60;;;;;;;-3.15;71.03;100460.41;5080840;28;20119;-93
2023/02/11 05:04:34;;;;;;;7.97;5.50;;;;;;;-3.12;70.98;100468.41;5084005;28;20072;-92
2023/02/11 05:07:00;;;;;;;8.25;4.85;;;;;;;-3.24;72.62;100478.13;5080787;28;20503;-93
2023/02/11 05:09:26;;;;;;;6.75;4.78;;;;;;;-3.38;73.26;100471.28;5083942;28;20063;-94
2023/02/11 05:11:52;;;;;;;7.03;4.60;;;;;;;-3.40;73.58;100472.91;5078065;28;20044;-93
2023/02/11 05:14:19;;;;;;;6.65;4.88;;;;;;;-3.54;74.44;100461.72;5080417;28;20051;-93
2023/02/11 05:16:45;;;;;;;9.68;4.97;;;;;;;-3.54;75.38;100474.72;5081135;28;20428;-93
2023/02/11 05:19:11;;;;;;;7.03;4.85;;;;;;;-3.68;75.70;100460.06;5084102;28;20043;-93
2023/02/11 05:21:37;;;;;;;6.85;4.68;;;;;;;-3.70;75.66;100462.56;5079398;28;20121;-93
2023/02/11 05:24:03;;;;;;;7.88;4.90;;;;;;;-3.66;75.94;100482.72;5083320;28;20564;-93
2023/02/11 05:26:29;;;;;;;9.80;5.20;;;;;;;-3.77;76.24;100460.44;5077567;28;20067;-92
2023/02/11 05:28:55;;;;;;;7.70;4.90;;;;;;;-3.62;76.16;100488.97;5079969;28;20068;-94
2023/02/11 05:31:22;;;;;;;6.50;4.57;;;;;;;-3.75;76.80;100488.31;5077789;28;20051;-93
2023/02/11 05:33:48;;;;;;;7.75;4.88;;;;;;;-3.96;77.57;100459.34;5081133;28;20043;-94
2023/02/11 05:36:15;;;;;;;7.05;4.63;;;;;;;-3.88;77.87;100483.19;5084311;28;20035;-93
2023/02/11 05:38:42;;;;;;;8.02;4.60;;;;;;;-3.86;77.73;100475.47;5078712;28;20051;-94
2023/02/11 05:41:09;;;;;;;6.82;5.00;;;;;;;-3.77;77.56;100502.03;5078781;28;20131;-92
2023/02/11 05:43:35;;;;;;;7.40;5.57;;;;;;;-3.89;79.31;100493.50;5079189;28;20493;-94
2023/02/11 05:46:01;;;;;;;7.22;4.97;;;;;;;-3.96;79.48;100498.34;5080131;28;20123;-93
2023/02/11 05:48:29;;;;;;;6.30;5.00;;;;;;;-4.02;79.87;100486.69;5082525;28;20036;-91
2023/02/11 05:50:55;;;;;;;7.45;5.50;;;;;;;-4.05;79.91;100495.22;5078428;28;20036;-92
2023/02/11 05:53:21;;;;;;;7.72;5.43;;;;;;;-4.13;79.72;100491.25;5078282;28;20490;-92
2023/02/11 05:55:47;;;;;;;7.82;5.47;;;;;;;-4.10;81.23;100507.00;5083984;28;20055;-91
2023/02/11 05:58:13;;;;;;;11.32;7.10;;;;;;;-4.10;80.41;100500.91;5081414;28;20044;-92
2023/02/11 06:00:39;;;;;;;9.70;6.75;;;;;;;-4.04;80.63;100511.69;5079524;28;20043;-93
2023/02/11 06:03:05;;;;;;;9.43;6.25;;;;;;;-4.08;79.19;100521.00;5078373;28;20048;-92
2023/02/11 06:05:33;;;;;;;9.18;6.03;;;;;;;-4.07;79.81;100508.91;5082800;28;20054;-91
2023/02/11 06:07:58;;;;;;;9.35;6.47;;;;;;;-4.17;81.29;100510.94;5080107;28;20573;-94
2023/02/11 06:10:25;;;;;;;9.10;6.43;;;;;;;-4.25;81.50;100494.03;5089080;28;20071;-93
2023/02/11 06:12:51;;;;;;;10.35;6.22;;;;;;;-4.26;81.15;100504.31;5080540;28;20036;-91
2023/02/11 06:15:17;;;;;;;8.88;6.40;;;;;;;-4.28;81.91;100513.72;5079761;28;20073;-92
2023/02/11 06:17:43;;;;;;;9.45;6.65;;;;;;;-4.27;80.98;100516.41;5082810;28;20043;-93
2023/02/11 06:20:10;;;;;;;7.75;5.93;;;;;;;-4.22;81.41;100527.97;5082435;28;20036;-93
2023/02/11 06:22:37;;;;;;;13.90;6.55;;;;;;;-4.39;81.52;100513.06;5083614;28;20040;-94
2023/02/11 06:25:03;;;;;;;9.60;6.22;;;;;;;-4.23;81.91;100538.25;5079039;28;20059;-91
2023/02/11 06:27:29;;;;;;;9.55;5.90;;;;;;;-4.30;81.76;100523.13;5093409;28;20040;-92
2023/02/11 06:29:55;;;;;;;8.02;5.82;;;;;;;-4.20;81.83;100531.56;5082719;28;20039;-92
2023/02/11 06:32:21;;;;;;;10.73;7.15;;;;;;;-4.14;80.33;100531.94;5085027;28;20043;-94
2023/02/11 06:34:47;;;;;;;8.80;5.63;;;;;;;-4.14;80.44;100536.25;5083342;28;20067;-93
2023/02/11 06:37:13;;;;;;;7.82;5.80;;;;;;;-4.07;80.25;100540.09;5078643;28;20054;-93
2023/02/11 06:39:43;;;;;;;9.23;6.38;;;;;;;-3.93;80.08;100550.47;5084046;28;20052;-93
2023/02/11 06:42:09;;;;;;;9.60;6.53;;;;;;;-3.90;80.68;100543.66;5085651;28;20489;-95
2023/02/11 06:44:35;;;;;;;8.85;5.78;;;;;;;-3.78;80.24;100534.91;5088042;28;20044;-93
2023/02/11 06:47:01;;;;;;;8.57;5.90;;;;;;;-3.72;79.45;100521.38;5087383;28;20064;-92
2023/02/11 06:49:26;;;;;;;7.55;5.82;;;;;;;-3.60;78.99;100547.16;5092393;28;20036;-92
2023/02/11 06:51:52;;;;;;;9.07;6.22;;;;;;;-3.57;79.08;100539.56;5087863;28;20063;-92
2023/02/11 06:54:18;;;;;;;8.48;5.93;;;;;;;-3.38;78.86;100557.13;5090137;28;20044;-92
2023/02/11 06:56:46;;;;;;;11.10;5.88;;;;;;;-3.44;77.93;100534.25;5086824;28;20082;-92
2023/02/11 06:59:15;;;;;;;8.60;5.90;;;;;;;-3.37;77.66;100549.38;5090327;28;20052;-93
2023/02/11 07:01:41;;;;;;;11.70;7.28;;;;;;;-3.34;78.06;100536.56;5090086;28;20115;-92
2023/02/11 07:04:07;;;;;;;9.95;6.60;;;;;;;-3.20;77.55;100541.66;5092703;28;20127;-92
2023/02/11 07:06:33;;;;;;;10.25;6.75;;;;;;;-3.01;75.73;100564.41;5087119;28;20089;-91
2023/02/11 07:08:59;;;;;;;9.40;6.20;;;;;;;-2.84;74.37;100560.13;5088201;28;20040;-94
2023/02/11 07:11:27;;;;;;;10.48;6.50;;;;;;;-2.73;73.94;100559.91;5082955;28;20433;-92
2023/02/11 07:13:59;;;;;;;11.20;6.78;;;;;;;-2.52;73.38;100565.38;5090638;28;20059;-93
2023/02/11 07:16:25;;;;;;;10.15;6.85;;;;;;;-2.45;73.66;100563.09;5088804;28;20039;-93
2023/02/11 07:18:50;;;;;;;10.77;7.70;;;;;;;-2.54;73.83;100543.59;5085043;28;20048;-94
2023/02/11 07:21:19;;;;;;;11.23;7.47;;;;;;;-2.39;74.60;100566.94;5080626;28;20078;-92
2023/02/11 07:23:47;;;;;;;13.20;8.10;;;;;;;-2.35;74.76;100565.41;5083413;28;20074;-92
2023/02/11 07:26:15;;;;;;;13.93;8.90;;;;;;;-2.22;74.69;100582.56;5083045;28;20283;-94
2023/02/11 07:28:41;;;;;;;13.98;8.98;;;;;;;-2.22;74.65;100575.66;5077456;28;20050;-94
2023/02/11 07:31:10;;;;;;;13.68;9.35;;;;;;;-2.18;74.62;100572.41;5082474;28;20044;-94
2023/02/11 07:33:36;;;;;;;13.63;9.40;;;;;;;-2.12;74.29;100564.91;5077726;28;20043;-93
2023/02/11 07:36:04;;;;;;;16.25;10.40;;;;;;;-1.99;73.84;100584.69;5085641;28;20058;-93
2023/02/11 07:38:31;;;;;;;15.45;11.52;;;;;;;-1.91;73.42;100586.00;5081970;28;20067;-92
2023/02/11 07:40:59;;;;;;;10.85;7.25;;;;;;;-1.71;70.25;100566.16;5079839;28;20524;-92
2023/02/11 07:43:25;;;;;;;10.55;7.30;;;;;;;-1.43;69.03;100569.22;5082387;28;20063;-92
2023/02/11 07:45:51;;;;;;;9.75;7.03;;;;;;;-1.13;68.46;100596.88;5083785;28;20067;-92
2023/02/11 07:48:18;;;;;;;8.60;6.18;;;;;;;-1.20;67.49;100566.03;5085751;28;20450;-93
2023/02/11 07:50:44;;;;;;;8.27;6.15;;;;;;;-1.04;66.62;100573.81;5086693;28;20132;-94
2023/02/11 07:53:10;;;;;;;9.07;6.30;;;;;;;-0.77;64.76;100567.22;5082510;28;20089;-93
2023/02/11 07:55:36;;;;;;;9.43;6.50;;;;;;;-0.52;63.56;100569.25;5083061;28;20044;-92
2023/02/11 07:58:02;;;;;;;8.85;5.97;;;;;;;-0.25;61.23;100578.34;5085734;28;20056;-93
2023/02/11 08:00:27;;;;;;;10.10;7.03;;;;;;;-0.31;61.54;100553.66;5080417;28;20147;-94
2023/02/11 08:02:55;;;;;;;8.82;6.28;;;;;;;-0.15;61.55;100566.63;5088265;28;20040;-93
2023/02/11 08:05:23;;;;;;;8.45;6.60;;;;;;;-0.17;61.39;100554.28;5077877;28;20563;-93
2023/02/11 08:07:50;;;;;;;7.97;5.97;;;;;;;0.06;60.36;100561.41;5084357;28;20074;-91
2023/02/11 08:10:16;;;;;;;8.13;6.25;;;;;;;0.31;58.48;100572.97;5079218;28;20036;-94
2023/02/11 08:12:41;;;;;;;6.63;5.10;;;;;;;0.42;58.32;100562.97;5081181;28;20044;-94
2023/02/11 08:15:08;;;;;;;7.35;5.32;;;;;;;0.42;58.50;100540.28;5085399;28;20044;-94
2023/02/11 08:17:34;;;;;;;13.48;10.18;;;;;;;0.26;58.78;100545.69;5086896;28;20063;-94
2023/02/11 08:20:00;;;;;;;12.15;8.23;;;;;;;0.58;58.90;100568.88;5086480;28;20051;-92
2023/02/11 08:22:30;;;;;;;7.93;5.80;;;;;;;0.85;56.44;100565.63;5089855;28;20401;-94
2023/02/11 08:24:57;;;;;;;;;;;;;;;1.27;54.56;100580.38;5083104;28;20066;-94
2023/02/11 08:27:23;;;;;;;9.18;6.88;;;;;;;1.20;55.02;100555.66;5086495;28;19926;-94
2023/02/11 08:29:49;;;;;;;7.95;5.57;;;;;;;1.41;54.59;100561.75;5093389;28;20496;-93
2023/02/11 08:32:15;;;;;;;10.30;6.45;;;;;;;1.61;54.47;100575.59;5090110;28;20044;-93
2023/02/11 08:34:41;;;;;;;12.48;9.60;;;;;;;1.64;55.55;100559.97;5090837;28;20135;-93
2023/02/11 08:37:07;;;;;;;9.25;7.00;;;;;;;1.80;56.09;100553.59;5083346;28;20119;-95
2023/02/11 08:39:35;;;;;;;11.60;7.47;;;;;;;1.83;54.60;100543.19;5082703;28;20436;-92
2023/02/11 08:42:00;;;;;;;9.98;7.43;;;;;;;2.00;54.16;100549.06;5078352;28;20052;-94
2023/02/11 08:44:26;;;;;;;9.23;7.03;;;;;;;2.06;55.41;100561.53;5086961;28;20442;-95
2023/02/11 08:46:52;;;;;;;10.93;7.38;;;;;;;1.98;56.64;100570.84;5087390;28;20036;-93
2023/02/11 08:49:19;;;;;;;9.88;6.80;;;;;;;1.91;55.90;100572.34;5081839;28;20128;-93
2023/02/11 08:51:45;;;;;;;9.70;7.35;;;;;;;1.87;55.73;100569.56;5081268;28;20047;-92
2023/02/11 08:54:12;;;;;;;10.40;6.28;;;;;;;2.13;56.03;100576.66;5086427;28;20044;-93
2023/02/11 08:56:39;;;;;;;10.85;7.32;;;;;;;2.35;55.85;100577.41;5065988;28;20097;-92
2023/02/11 08:59:06;;;;;;;9.77;6.90;;;;;;;2.40;55.30;100546.94;5068034;28;20040;-92
2023/02/11 09:01:32;;;;;;;9.85;6.63;;;;;;;2.67;54.84;100571.53;5057938;28;20055;-93
2023/02/11 09:03:58;;;;;;;10.20;7.60;;;;;;;2.71;54.42;100529.59;5066269;28;20131;-92
2023/02/11 09:06:25;;;;;;;10.02;7.20;;;;;;;3.01;53.95;100569.97;5062561;28;20059;-93
2023/02/11 09:08:53;;;;;;;9.05;6.57;;;;;;;3.05;53.52;100536.81;5060611;28;20040;-93
2023/02/11 09:11:21;;;;;;;10.02;7.00;;;;;;;3.23;53.04;100541.75;5066536;28;20056;-93
2023/02/11 09:13:49;;;;;;;10.57;6.83;;;;;;;3.43;51.21;100555.53;5061116;28;20066;-94
2023/02/11 09:16:17;;;;;;;11.48;7.13;;;;;;;3.57;52.52;100559.44;5062054;28;20037;-94
2023/02/11 09:18:44;;;;;;;9.82;6.70;;;;;;;3.38;52.32;100536.06;5060403;28;20037;-94
2023/02/11 09:21:10;;;;;;;9.25;6.88;;;;;;;3.52;52.19;100534.75;5062015;28;21366;-94
2023/02/11 09:23:36;;;;;;;8.73;6.63;;;;;;;3.66;51.52;100533.41;5061497;28;20064;-92
2023/02/11 09:26:05;;;;;;;8.70;6.43;;;;;;;3.71;50.72;100517.78;5058300;28;20072;-93
2023/02/11 09:28:34;;;;;;;8.68;6.95;;;;;;;3.81;50.67;100548.75;5057998;28;20045;-93
2023/02/11 09:31:05;;;;;;;9.55;6.97;;;;;;;3.76;51.04;100526.69;5065001;28;20052;-93
2023/02/11 09:33:32;;;;;;;9.93;7.22;;;;;;;3.66;50.57;100543.03;5060404;28;21379;-93
2023/02/11 09:36:00;;;;;;;9.60;6.70;;;;;;;3.62;51.52;100541.16;5058691;28;20068;-94
2023/02/11 09:38:25;;;;;;;10.13;7.10;;;;;;;3.77;51.59;100554.78;5060955;28;20071;-95
2023/02/11 09:40:51;;;;;;;9.32;7.45;;;;;;;3.49;51.53;100535.56;5058061;28;20040;-92
2023/02/11 09:43:19;;;;;;;12.63;8.98;;;;;;;3.64;52.18;100537.75;5070194;28;20044;-93
2023/02/11 09:45:46;;;;;;;10.07;7.20;;;;;;;3.90;51.38;100535.88;5056588;28;20097;-94
2023/02/11 09:48:16;;;;;;;8.27;6.10;;;;;;;4.09;50.45;100544.28;5057829;28;20048;-92
2023/02/11 09:50:46;;;;;;;9.52;6.50;;;;;;;4.32;49.89;100547.53;5057767;28;20040;-93
2023/02/11 09:53:18;;;;;;;9.00;6.60;;;;;;;4.48;49.97;100549.72;5057821;28;20086;-91
2023/02/11 09:55:49;;;;;;;9.40;6.95;;;;;;;4.61;49.41;100550.03;5064013;28;20106;-91
2023/02/11 10:01:20;;;;;;;11.27;6.65;;;;;;;4.47;49.96;100529.50;5033084;28;20048;-92
2023/02/11 10:04:01;;;;;;;8.68;6.28;;;;;;;4.39;49.59;100548.59;5034970;28;20565;-93
2023/02/11 10:06:38;;;;;;;13.30;7.40;;;;;;;4.27;50.11;100534.25;5034429;28;20073;-93
2023/02/11 10:09:18;;;;;;;8.23;6.60;;;;;;;4.34;50.41;100540.56;5034886;28;20131;-94
2023/02/11 10:11:58;;;;;;;9.00;6.07;;;;;;;4.69;49.78;100548.50;5034953;28;20041;-94
2023/02/11 10:14:47;;;;;;;8.27;6.20;;;;;;;4.90;48.79;100543.75;5035008;28;20530;-94
2023/02/11 10:17:20;;;;;;;;;;;;;;;5.11;48.17;100559.19;5028383;28;20423;-94
2023/02/11 10:20:01;;;;;;;9.65;6.63;;;;;;;5.27;48.08;100542.00;5039362;28;19928;-92
2023/02/11 10:22:34;;;;;;;8.68;6.57;;;;;;;5.38;47.19;100543.94;5037951;28;20091;-92
2023/02/11 10:25:22;;;;;;;9.23;6.55;;;;;;;5.52;46.96;100537.25;5037488;28;20052;-92
2023/02/11 10:27:49;;;;;;;8.93;7.00;;;;;;;5.61;46.64;100550.63;5038524;28;20520;-94
2023/02/11 10:30:22;;;;;;;8.68;6.88;;;;;;;5.54;46.25;100528.50;5038972;28;20045;-92
2023/02/11 10:32:53;;;;;;;7.75;5.75;;;;;;;5.64;45.05;100529.59;5040245;28;20644;-94
2023/02/11 10:35:22;;;;;;;9.75;5.90;;;;;;;5.90;45.48;100543.34;5040587;28;20510;-95
2023/02/11 10:37:49;;;;;;;8.25;6.47;;;;;;;6.04;45.03;100535.72;5054596;28;20033;-94
2023/02/11 10:40:17;;;;;;;9.48;6.55;;;;;;;6.08;45.20;100531.41;5084072;28;20044;-93
2023/02/11 10:42:46;;;;;;;8.23;6.55;;;;;;;6.30;45.09;100551.19;5083434;28;20516;-94
2023/02/11 10:45:20;;;;;;;10.20;7.10;;;;;;;6.37;44.77;100540.72;5083426;28;20044;-93
2023/02/11 10:47:46;;;;;;;10.15;7.25;;;;;;;6.42;44.74;100539.94;5091702;28;20450;-93
2023/02/11 10:50:26;;;;;;;9.75;7.22;;;;;;;6.41;45.13;100523.19;5094901;28;20047;-93
2023/02/11 10:53:09;;;;;;;9.93;7.28;;;;;;;6.29;44.92;100515.03;5101752;28;20122;-95
2023/02/11 10:55:35;;;;;;;9.90;7.05;;;;;;;6.19;45.19;100535.13;5097195;28;20056;-94
2023/02/11 10:58:03;;;;;;;10.20;7.55;;;;;;;6.11;44.86;100502.38;5072729;28;20068;-95
2023/02/11 11:00:35;;;;;;;9.77;7.38;;;;;;;6.13;45.25;100500.66;5083379;28;20050;-94
2023/02/11 11:03:03;;;;;;;11.00;7.60;;;;;;;6.11;45.64;100499.75;5082439;28;20408;-93
2023/02/11 11:05:34;;;;;;;10.50;7.40;;;;;;;6.16;45.47;100493.69;5083223;28;20048;-95
2023/02/11 11:08:02;;;;;;;10.27;7.85;;;;;;;6.27;45.80;100496.53;5064847;28;20036;-95
2023/02/11 11:10:35;;;;;;;10.32;8.05;;;;;;;6.26;45.53;100486.81;5061642;28;20052;-94
2023/02/11 11:13:01;;;;;;;10.23;7.97;;;;;;;6.21;45.99;100474.41;5063347;28;20045;-95
2023/02/11 11:15:28;;;;;;;10.13;7.97;;;;;;;6.28;45.50;100477.16;5062159;28;20444;-95
2023/02/11 11:18:12;;;;;;;11.15;8.27;;;;;;;6.15;45.69;100480.44;5060469;28;20040;-93
2023/02/11 11:20:51;;;;;;;9.93;7.47;;;;;;;6.23;45.80;100481.50;5062249;28;20052;-93
2023/02/11 11:23:19;;;;;;;;;;;;;;;6.41;45.68;100487.97;5062380;28;20071;-93
2023/02/11 11:26:02;;;;;;;11.77;8.77;;;;;;;6.38;45.94;100468.53;5058684;28;19943;-93
2023/02/11 11:28:32;;;;;;;9.70;7.85;;;;;;;6.42;45.86;100463.28;5060740;28;20551;-94
2023/02/11 11:30:59;;;;;;;10.43;7.10;;;;;;;6.44;46.16;100449.28;5062468;28;20060;-94
2023/02/11 11:33:28;;;;;;;11.18;7.47;;;;;;;6.60;45.69;100445.13;5062597;28;20091;-91
2023/02/11 11:36:05;;;;;;;9.25;7.82;;;;;;;6.69;45.42;100450.53;5065544;28;20041;-92
2023/02/11 11:38:33;;;;;;;9.85;7.82;;;;;;;6.77;45.25;100451.56;5062972;28;20044;-93